Time;durP1;ratioP1;P1;durP2;ratioP2;P2;SDS_P1;SDS_P2;PMS_P1;PMS_P2;Temp;Humidity;BMP_temperature;BMP_pressure;BME280_temperature;BME280_humidity;BME280_pressure;Samples;Min_cycle;Max_cycle;Signal;HPM_P1;HPM_P2
2021/12/02 00:00:28;;;;;;;9.35;1.35;;;2.90;99.90;;;;;;4935729;29;20055;-78
2021/12/02 00:02:54;;;;;;;8.65;1.35;;;2.90;99.90;;;;;;4935764;29;20044;-78
2021/12/02 00:05:20;;;;;;;11.20;1.00;;;2.90;99.90;;;;;;4918569;29;20048;-77
2021/12/02 00:07:45;;;;;;;11.82;1.17;;;2.90;99.90;;;;;;4935091;29;20055;-77
2021/12/02 00:10:12;;;;;;;7.13;1.05;;;2.80;99.90;;;;;;4918603;29;20059;-78
2021/12/02 00:12:38;;;;;;;13.73;1.38;;;2.80;99.90;;;;;;4935597;29;20131;-77
2021/12/02 00:15:07;;;;;;;6.97;1.38;;;2.80;99.90;;;;;;4935404;29;20108;-77
2021/12/02 00:17:39;;;;;;;11.32;1.23;;;2.70;99.90;;;;;;4935264;29;20047;-76
2021/12/02 00:22:59;;;;;;;7.85;1.58;;;2.70;99.90;;;;;;4916122;29;20059;-77
2021/12/02 00:25:25;;;;;;;8.55;1.63;;;2.80;99.90;;;;;;4916397;29;20515;-77
2021/12/02 00:27:52;;;;;;;10.95;1.83;;;2.80;99.90;;;;;;4919917;29;20134;-76
2021/12/02 00:30:18;;;;;;;14.05;1.88;;;2.90;99.90;;;;;;4935436;29;20075;-77
2021/12/02 00:32:46;;;;;;;8.55;1.45;;;2.90;99.90;;;;;;4935301;29;20450;-77
2021/12/02 00:35:12;;;;;;;13.68;1.52;;;2.90;99.90;;;;;;4934702;29;20399;-77
2021/12/02 00:37:38;;;;;;;11.27;1.73;;;3.00;99.90;;;;;;4917730;29;20048;-77
2021/12/02 00:40:05;;;;;;;14.60;1.15;;;3.00;99.90;;;;;;4934891;29;20039;-77
2021/12/02 00:42:34;;;;;;;10.30;1.23;;;3.20;99.90;;;;;;4935020;29;20070;-77
2021/12/02 00:45:03;;;;;;;5.68;1.20;;;3.20;99.90;;;;;;4918292;29;20126;-77
2021/12/02 00:47:29;;;;;;;11.13;1.25;;;3.30;99.90;;;;;;4935213;29;20131;-77
2021/12/02 00:49:54;;;;;;;9.90;1.23;;;3.30;99.90;;;;;;4917286;29;20460;-78
2021/12/02 00:52:21;;;;;;;6.85;0.80;;;3.30;99.90;;;;;;4918010;29;20051;-78
2021/12/02 00:54:48;;;;;;;4.82;0.70;;;3.20;99.90;;;;;;4917644;29;20059;-77
2021/12/02 00:57:13;;;;;;;3.75;0.43;;;3.20;99.90;;;;;;4934858;29;20111;-78
2021/12/02 00:59:40;;;;;;;2.95;0.55;;;3.20;99.90;;;;;;4917697;29;20043;-78
2021/12/02 01:02:07;;;;;;;1.73;0.50;;;3.10;99.90;;;;;;4934760;29;20142;-78
2021/12/02 01:04:33;;;;;;;7.80;1.00;;;3.10;99.90;;;;;;4934710;29;20114;-79
2021/12/02 01:06:59;;;;;;;2.15;0.50;;;3.10;99.90;;;;;;4917824;29;20055;-78
2021/12/02 01:09:25;;;;;;;3.33;0.60;;;3.10;99.90;;;;;;4934481;29;20102;-77
2021/12/02 01:11:54;;;;;;;1.92;0.40;;;3.00;99.90;;;;;;4917142;29;20051;-77
2021/12/02 01:14:20;;;;;;;1.55;0.45;;;3.10;99.90;;;;;;4934791;29;20040;-77
2021/12/02 01:16:46;;;;;;;5.15;0.50;;;3.00;99.90;;;;;;4917699;29;20408;-78
2021/12/02 01:19:12;;;;;;;5.85;0.70;;;3.20;99.90;;;;;;4901561;29;20530;-78
2021/12/02 01:21:40;;;;;;;6.82;0.70;;;3.30;99.90;;;;;;4934669;29;20265;-79
2021/12/02 01:24:09;;;;;;;7.75;1.63;;;3.30;99.90;;;;;;4934456;29;20078;-78
2021/12/02 01:26:35;;;;;;;4.32;0.70;;;3.30;99.90;;;;;;4917195;29;20043;-78
2021/12/02 01:29:04;;;;;;;5.43;0.50;;;3.30;99.90;;;;;;4917183;29;20495;-77
2021/12/02 01:31:32;;;;;;;4.75;0.50;;;3.30;99.90;;;;;;4917669;29;20122;-77
2021/12/02 01:34:06;;;;;;;2.75;0.50;;;3.20;99.90;;;;;;4934547;29;20047;-78
2021/12/02 01:36:35;;;;;;;7.00;0.85;;;3.30;99.90;;;;;;4934338;29;20050;-77
2021/12/02 01:39:01;;;;;;;3.15;0.60;;;3.20;99.90;;;;;;4934428;29;20044;-77
2021/12/02 01:41:27;;;;;;;7.30;1.20;;;3.20;99.90;;;;;;4934445;29;20039;-78
2021/12/02 01:43:54;;;;;;;4.22;0.85;;;3.20;99.90;;;;;;4917051;29;20058;-77
2021/12/02 01:46:25;;;;;;;6.03;0.88;;;3.20;99.90;;;;;;4934290;29;20130;-78
2021/12/02 01:49:06;;;;;;;6.35;0.60;;;3.20;99.90;;;;;;4920894;29;20055;-77
2021/12/02 01:51:44;;;;;;;7.70;0.73;;;3.20;99.90;;;;;;4938119;29;20503;-77
2021/12/02 01:54:13;;;;;;;4.43;0.60;;;3.20;99.90;;;;;;4938254;29;20048;-78
2021/12/02 01:56:50;;;;;;;6.15;0.60;;;3.20;99.90;;;;;;4920917;29;20058;-78
2021/12/02 01:59:25;;;;;;;7.65;0.80;;;3.20;99.90;;;;;;4937553;29;20059;-78
2021/12/02 02:01:57;;;;;;;3.45;0.70;;;3.20;99.90;;;;;;4920831;29;20511;-76
2021/12/02 02:04:24;;;;;;;5.38;0.73;;;3.20;99.90;;;;;;4920749;29;20083;-77
2021/12/02 02:07:01;;;;;;;6.18;0.77;;;3.20;99.90;;;;;;4938068;29;20051;-78
2021/12/02 02:09:29;;;;;;;5.60;0.80;;;3.10;99.90;;;;;;4921035;29;20054;-77
2021/12/02 02:11:56;;;;;;;4.93;0.80;;;3.10;99.90;;;;;;4937569;29;20099;-78
2021/12/02 02:14:24;;;;;;;5.50;0.80;;;3.10;99.90;;;;;;4937702;29;20192;-78
2021/12/02 02:16:50;;;;;;;6.57;0.77;;;3.00;99.90;;;;;;4937652;29;20047;-76
2021/12/02 02:19:16;;;;;;;7.72;0.68;;;3.00;99.90;;;;;;4937488;29;20046;-76
2021/12/02 02:21:43;;;;;;;2.03;0.47;;;3.00;99.90;;;;;;4905006;29;20052;-77
2021/12/02 02:24:17;;;;;;;5.40;0.50;;;2.90;99.90;;;;;;4937663;29;20458;-77
2021/12/02 02:26:43;;;;;;;2.75;0.50;;;2.90;99.90;;;;;;4937175;29;20051;-77
2021/12/02 02:29:12;;;;;;;4.95;0.55;;;2.90;99.90;;;;;;4920138;29;20039;-78
2021/12/02 02:31:41;;;;;;;3.97;0.50;;;2.90;99.90;;;;;;4937148;29;20487;-77
2021/12/02 02:34:07;;;;;;;4.47;0.70;;;2.80;99.90;;;;;;4937170;29;20083;-77
2021/12/02 02:36:37;;;;;;;6.30;0.88;;;2.90;99.90;;;;;;4937449;29;20055;-77
2021/12/02 02:39:04;;;;;;;4.05;0.60;;;2.80;99.90;;;;;;4937222;29;20055;-77
2021/12/02 02:41:35;;;;;;;4.20;0.60;;;2.80;99.90;;;;;;4920221;29;20048;-76
2021/12/02 02:44:02;;;;;;;7.28;0.65;;;2.80;99.90;;;;;;4936966;29;20060;-76
2021/12/02 02:46:34;;;;;;;2.28;0.40;;;2.80;99.90;;;;;;4919904;29;20073;-77
2021/12/02 02:49:03;;;;;;;8.13;0.70;;;2.80;99.90;;;;;;4937431;29;20094;-76
2021/12/02 02:51:31;;;;;;;4.70;0.60;;;2.80;99.90;;;;;;4904616;29;20050;-77
2021/12/02 02:54:03;;;;;;;7.20;0.70;;;2.80;99.90;;;;;;4919956;29;20052;-77
2021/12/02 02:56:31;;;;;;;3.30;0.70;;;2.70;99.90;;;;;;4936990;29;20052;-77
2021/12/02 02:59:21;;;;;;;4.93;0.82;;;2.70;99.90;;;;;;4935180;29;20555;-76
2021/12/02 03:02:10;;;;;;;1.58;0.50;;;2.70;99.90;;;;;;4920026;29;20044;-77
2021/12/02 03:07:19;;;;;;;4.57;0.80;;;2.60;99.90;;;;;;4936659;29;20051;-77
2021/12/02 03:16:37;;;;;;;1.17;0.50;;;2.60;99.90;;;;;;4919453;29;20127;-76
2021/12/02 03:17:34;;;;;;;2.03;0.40;;;2.60;99.90;;;;;;4935941;29;20059;-76
2021/12/02 03:20:01;;;;;;;3.53;0.40;;;2.60;99.90;;;;;;4936564;29;20039;-77
2021/12/02 03:22:27;;;;;;;3.38;0.30;;;2.60;99.90;;;;;;4936709;29;20052;-76
2021/12/02 03:24:53;;;;;;;2.72;0.57;;;2.60;99.90;;;;;;4919299;29;20478;-77
2021/12/02 03:27:18;;;;;;;3.35;0.40;;;2.60;99.90;;;;;;4919294;29;20083;-78
2021/12/02 03:29:44;;;;;;;4.85;0.40;;;2.60;99.90;;;;;;4918706;29;20435;-76
2021/12/02 03:32:10;;;;;;;4.50;0.50;;;2.60;99.90;;;;;;4936305;29;20399;-77
2021/12/02 03:34:38;;;;;;;2.97;0.35;;;2.60;99.90;;;;;;4936051;29;20065;-77
2021/12/02 03:37:05;;;;;;;3.63;0.52;;;2.50;99.90;;;;;;4936230;29;20054;-77
2021/12/02 03:39:31;;;;;;;0.80;0.20;;;2.50;99.90;;;;;;4936442;29;20058;-76
2021/12/02 03:41:57;;;;;;;1.10;0.20;;;2.40;99.90;;;;;;4919406;29;20048;-76
2021/12/02 03:44:24;;;;;;;1.67;0.30;;;2.40;99.90;;;;;;4903044;29;20043;-76
2021/12/02 03:46:51;;;;;;;0.80;0.30;;;2.30;99.90;;;;;;4936015;29;20456;-76
2021/12/02 03:49:16;;;;;;;4.40;0.22;;;2.30;99.90;;;;;;4935946;29;20103;-76
2021/12/02 03:51:42;;;;;;;2.60;0.43;;;2.20;99.90;;;;;;4903002;29;20044;-76
2021/12/02 03:54:08;;;;;;;1.55;0.20;;;2.20;99.90;;;;;;4935874;29;20455;-76
2021/12/02 03:56:34;;;;;;;3.92;0.30;;;2.20;99.90;;;;;;4935995;29;20123;-76
2021/12/02 03:59:00;;;;;;;1.00;0.38;;;2.10;99.90;;;;;;4918573;29;20498;-77
2021/12/02 04:01:26;;;;;;;2.42;0.35;;;2.00;99.90;;;;;;4935427;29;20058;-76
2021/12/02 04:03:52;;;;;;;4.88;0.40;;;1.90;99.90;;;;;;4935615;29;20126;-76
2021/12/02 04:06:19;;;;;;;1.73;0.30;;;1.90;99.90;;;;;;4918609;29;20380;-77
2021/12/02 04:08:48;;;;;;;1.23;0.20;;;1.90;99.90;;;;;;4935868;29;20040;-77
2021/12/02 04:11:29;;;;;;;3.20;0.20;;;1.80;99.90;;;;;;4918270;29;20134;-77
2021/12/02 04:14:11;;;;;;;2.05;0.43;;;1.80;99.90;;;;;;4935503;29;20051;-77
2021/12/02 04:16:38;;;;;;;2.60;0.35;;;1.80;99.90;;;;;;4902639;29;20134;-77
2021/12/02 04:19:06;;;;;;;2.03;0.32;;;1.70;99.90;;;;;;4935342;29;20083;-77
2021/12/02 04:21:32;;;;;;;1.60;0.40;;;1.70;99.90;;;;;;4918515;29;20051;-77
2021/12/02 04:23:59;;;;;;;1.27;0.30;;;1.70;99.90;;;;;;4918485;29;20043;-77
2021/12/02 04:26:24;;;;;;;1.85;0.30;;;1.60;99.90;;;;;;4935287;29;20047;-77
2021/12/02 04:28:51;;;;;;;1.58;0.40;;;1.50;99.90;;;;;;4917817;29;20062;-78
2021/12/02 04:31:16;;;;;;;1.40;0.20;;;1.50;99.90;;;;;;4917898;29;20071;-77
2021/12/02 04:33:42;;;;;;;1.98;0.30;;;1.50;99.90;;;;;;4918009;29;20083;-77
2021/12/02 04:36:07;;;;;;;1.48;0.63;;;1.50;99.90;;;;;;4918182;29;20047;-78
2021/12/02 04:38:34;;;;;;;1.70;0.38;;;1.50;99.90;;;;;;4918146;29;20055;-77
2021/12/02 04:40:59;;;;;;;2.35;0.40;;;1.50;99.90;;;;;;4935119;29;20183;-77
2021/12/02 04:43:25;;;;;;;4.15;0.40;;;1.50;99.90;;;;;;4935022;29;20114;-78
2021/12/02 04:45:52;;;;;;;5.40;0.60;;;1.40;99.90;;;;;;4917974;29;20052;-77
2021/12/02 04:48:18;;;;;;;5.75;0.90;;;1.50;99.90;;;;;;4934580;29;20091;-77
2021/12/02 04:50:55;;;;;;;5.63;0.88;;;1.40;99.90;;;;;;4918187;29;20047;-76
2021/12/02 04:53:20;;;;;;;1.98;0.40;;;1.50;99.90;;;;;;4917474;29;20054;-76
2021/12/02 04:55:46;;;;;;;0.93;0.40;;;1.50;99.90;;;;;;4934972;29;20051;-76
2021/12/02 04:58:13;;;;;;;2.80;0.50;;;1.50;99.90;;;;;;4917459;29;20407;-77
2021/12/02 05:00:38;;;;;;;1.02;0.40;;;1.50;99.90;;;;;;4934747;29;20126;-76
2021/12/02 05:03:04;;;;;;;4.72;0.40;;;1.50;99.90;;;;;;4934205;29;20528;-77
2021/12/02 05:05:32;;;;;;;4.20;0.50;;;1.40;99.90;;;;;;4917218;29;20058;-76
2021/12/02 05:07:59;;;;;;;5.30;0.52;;;1.40;99.90;;;;;;4934750;29;20208;-76
2021/12/02 05:10:25;;;;;;;2.63;0.38;;;1.50;99.90;;;;;;4901469;29;20060;-77
2021/12/02 05:12:51;;;;;;;3.72;0.52;;;1.50;99.90;;;;;;4917653;29;20102;-77
2021/12/02 05:15:16;;;;;;;1.50;0.30;;;1.60;99.90;;;;;;4917595;29;20048;-75
2021/12/02 05:17:42;;;;;;;2.92;0.50;;;1.60;99.90;;;;;;4917198;29;20058;-76
2021/12/02 05:20:08;;;;;;;1.10;0.30;;;1.60;99.90;;;;;;4934803;29;20051;-77
2021/12/02 05:22:34;;;;;;;0.63;0.20;;;1.70;99.90;;;;;;4934143;29;20047;-77
2021/12/02 05:25:00;;;;;;;3.70;0.17;;;1.70;99.90;;;;;;4934733;29;20051;-77
2021/12/02 05:27:25;;;;;;;1.98;0.40;;;1.70;99.90;;;;;;4901455;29;20050;-77
2021/12/02 05:29:51;;;;;;;7.07;0.38;;;1.80;99.90;;;;;;4917625;29;20052;-77
2021/12/02 05:32:17;;;;;;;1.73;0.28;;;1.80;99.90;;;;;;4934358;29;20040;-77
2021/12/02 05:34:47;;;;;;;1.85;0.30;;;1.90;99.90;;;;;;4934586;29;20499;-77
2021/12/02 05:37:13;;;;;;;3.00;0.52;;;1.80;99.90;;;;;;4934630;29;20051;-77
2021/12/02 05:39:38;;;;;;;5.07;0.30;;;1.80;99.90;;;;;;4917451;29;20054;-77
2021/12/02 05:42:04;;;;;;;6.00;0.60;;;1.90;99.90;;;;;;4917711;29;20047;-77
2021/12/02 05:44:30;;;;;;;1.40;0.30;;;1.90;99.90;;;;;;4934462;29;20036;-76
2021/12/02 05:46:55;;;;;;;1.20;0.20;;;1.90;99.90;;;;;;4917042;29;20051;-76
2021/12/02 05:49:21;;;;;;;0.68;0.30;;;1.90;99.90;;;;;;4917170;29;20047;-77
2021/12/02 05:51:47;;;;;;;6.45;0.38;;;1.90;99.90;;;;;;4901618;29;20054;-77
2021/12/02 05:54:12;;;;;;;1.17;0.30;;;1.90;99.90;;;;;;4916780;29;20052;-77
2021/12/02 05:56:40;;;;;;;1.65;0.30;;;1.90;99.90;;;;;;4934199;29;20055;-77
2021/12/02 05:59:06;;;;;;;3.03;0.30;;;1.90;99.90;;;;;;4934246;29;20055;-77
2021/12/02 06:01:32;;;;;;;1.65;0.25;;;1.90;99.90;;;;;;4934434;29;20418;-76
2021/12/02 06:03:58;;;;;;;2.58;0.65;;;1.90;99.90;;;;;;4933653;29;20047;-76
2021/12/02 06:06:26;;;;;;;4.57;0.50;;;2.00;99.90;;;;;;4934201;29;20065;-76
2021/12/02 06:08:51;;;;;;;1.17;0.30;;;2.00;99.90;;;;;;4934358;29;20107;-76
2021/12/02 06:11:17;;;;;;;1.58;0.30;;;2.00;99.90;;;;;;4917050;29;20392;-75
2021/12/02 06:13:45;;;;;;;1.80;0.28;;;2.00;99.90;;;;;;4917338;29;20048;-76
2021/12/02 06:16:10;;;;;;;0.15;0.13;;;2.00;99.90;;;;;;4934146;29;20126;-76
2021/12/02 06:18:36;;;;;;;1.08;0.25;;;2.00;99.90;;;;;;4934084;29;20139;-76
2021/12/02 06:21:01;;;;;;;1.50;0.32;;;2.00;99.90;;;;;;4934203;29;20050;-76
2021/12/02 06:23:27;;;;;;;2.08;0.40;;;2.00;99.90;;;;;;4917260;29;20444;-76
2021/12/02 06:25:53;;;;;;;1.02;0.30;;;2.00;99.90;;;;;;4916594;29;20506;-77
2021/12/02 06:28:18;;;;;;;2.00;0.40;;;2.00;99.90;;;;;;4916844;29;20052;-76
2021/12/02 06:30:45;;;;;;;2.75;0.38;;;2.00;99.90;;;;;;4916980;29;20086;-76
2021/12/02 06:33:11;;;;;;;2.25;0.30;;;2.00;99.90;;;;;;4916857;29;20444;-76
2021/12/02 06:35:38;;;;;;;1.55;0.30;;;2.00;99.90;;;;;;4936813;29;20047;-76
2021/12/02 06:38:04;;;;;;;5.22;0.20;;;2.00;99.90;;;;;;4937565;29;20047;-76
2021/12/02 06:40:31;;;;;;;2.45;0.30;;;2.00;99.90;;;;;;4920011;29;20558;-76
2021/12/02 06:42:57;;;;;;;0.60;0.30;;;2.10;99.90;;;;;;4920200;29;20055;-76
2021/12/02 06:45:23;;;;;;;0.63;0.22;;;1.90;99.90;;;;;;4937338;29;20388;-76
2021/12/02 06:47:50;;;;;;;0.68;0.20;;;1.90;99.90;;;;;;4936694;29;20475;-76
2021/12/02 06:50:19;;;;;;;1.77;0.30;;;1.90;99.90;;;;;;4936821;29;20054;-76
2021/12/02 06:52:46;;;;;;;1.83;0.40;;;1.90;99.90;;;;;;4919911;29;20051;-77
2021/12/02 06:55:12;;;;;;;3.40;0.30;;;2.30;99.90;;;;;;4919678;29;20063;-75
2021/12/02 06:57:39;;;;;;;0.90;0.30;;;1.90;99.90;;;;;;4900771;29;20552;-76
2021/12/02 07:00:10;;;;;;;4.13;0.22;;;2.00;99.90;;;;;;4917977;29;20127;-76
2021/12/02 07:02:36;;;;;;;1.20;0.20;;;1.90;99.90;;;;;;4921073;29;20036;-76
2021/12/02 07:05:03;;;;;;;2.17;0.30;;;1.90;99.90;;;;;;4919928;29;20094;-77
2021/12/02 07:07:33;;;;;;;3.33;0.30;;;2.00;99.90;;;;;;4936174;29;20064;-77
2021/12/02 07:09:59;;;;;;;1.65;0.55;;;2.00;99.90;;;;;;4919484;29;20090;-77
2021/12/02 07:12:33;;;;;;;3.20;0.40;;;2.00;99.90;;;;;;4919627;29;20063;-77
2021/12/02 07:14:59;;;;;;;1.75;0.40;;;2.50;99.90;;;;;;4919683;29;20059;-76
2021/12/02 07:17:26;;;;;;;4.28;0.63;;;2.10;99.90;;;;;;4936462;29;20047;-76
2021/12/02 07:19:52;;;;;;;4.10;0.60;;;2.10;99.90;;;;;;4936089;29;20062;-76
2021/12/02 07:22:17;;;;;;;5.03;1.10;;;2.70;99.90;;;;;;4936357;29;20051;-76
2021/12/02 07:24:43;;;;;;;4.15;1.10;;;2.10;99.90;;;;;;4936584;29;20063;-76
2021/12/02 07:27:09;;;;;;;2.47;0.70;;;2.10;99.90;;;;;;4918951;29;20054;-76
2021/12/02 07:29:34;;;;;;;3.20;1.10;;;2.10;99.90;;;;;;4919530;29;20052;-76
2021/12/02 07:32:02;;;;;;;4.00;0.80;;;2.20;99.90;;;;;;4936323;29;20505;-77
2021/12/02 07:34:33;;;;;;;4.28;0.82;;;2.20;99.90;;;;;;4936370;29;20087;-78
2021/12/02 07:37:01;;;;;;;2.22;0.80;;;2.20;99.90;;;;;;4935992;29;20580;-77
2021/12/02 07:39:28;;;;;;;6.03;1.00;;;2.20;99.90;;;;;;4936177;29;20044;-77
2021/12/02 07:41:54;;;;;;;1.60;0.60;;;2.10;99.90;;;;;;4918897;29;20055;-78
2021/12/02 07:44:21;;;;;;;2.03;0.65;;;2.10;99.90;;;;;;4918607;29;20395;-77
2021/12/02 07:46:46;;;;;;;1.30;0.60;;;2.10;99.90;;;;;;4918539;29;20178;-76
2021/12/02 07:49:13;;;;;;;3.70;0.80;;;2.10;99.90;;;;;;4918886;29;20142;-75
2021/12/02 07:51:43;;;;;;;1.95;0.68;;;2.00;99.90;;;;;;4936033;29;20048;-77
2021/12/02 07:54:11;;;;;;;3.60;0.60;;;2.00;99.90;;;;;;4935645;29;20079;-78
2021/12/02 07:56:37;;;;;;;8.30;0.70;;;2.00;99.90;;;;;;4917933;29;20051;-78
2021/12/02 07:59:03;;;;;;;3.75;0.73;;;1.90;99.90;;;;;;4918897;29;20061;-78
2021/12/02 08:01:29;;;;;;;2.55;0.50;;;1.90;99.90;;;;;;4935502;29;20470;-78
2021/12/02 08:03:55;;;;;;;6.03;0.80;;;1.90;99.90;;;;;;4918566;29;20399;-78
2021/12/02 08:06:21;;;;;;;4.18;0.70;;;1.80;99.90;;;;;;4917895;29;20063;-78
2021/12/02 08:08:47;;;;;;;3.05;0.55;;;1.80;99.90;;;;;;4918493;29;20069;-78
2021/12/02 08:11:13;;;;;;;3.80;0.70;;;1.80;99.90;;;;;;4918637;29;20134;-78
2021/12/02 08:13:39;;;;;;;2.55;0.60;;;2.10;99.90;;;;;;4901830;29;20522;-77
2021/12/02 08:16:07;;;;;;;2.60;0.60;;;1.70;99.90;;;;;;4934960;29;20040;-77
2021/12/02 08:18:34;;;;;;;5.00;0.60;;;1.70;99.90;;;;;;4935451;29;20407;-78
2021/12/02 08:21:00;;;;;;;1.40;0.65;;;1.70;99.90;;;;;;4935361;29;20447;-77
2021/12/02 08:23:26;;;;;;;3.05;0.82;;;1.70;99.90;;;;;;4902014;29;20074;-78
2021/12/02 08:25:53;;;;;;;5.10;0.70;;;1.60;99.90;;;;;;4935385;29;20415;-77
2021/12/02 08:28:19;;;;;;;2.45;0.60;;;1.60;99.90;;;;;;4935148;29;20047;-77
2021/12/02 08:30:45;;;;;;;2.15;0.52;;;1.60;99.90;;;;;;4918129;29;20126;-77
2021/12/02 08:33:13;;;;;;;2.28;0.60;;;1.80;99.90;;;;;;4935302;29;20119;-77
2021/12/02 08:35:40;;;;;;;1.58;0.52;;;1.60;99.90;;;;;;4935229;29;20059;-77
2021/12/02 08:38:11;;;;;;;1.83;0.50;;;1.60;99.90;;;;;;4918191;29;20052;-77
2021/12/02 08:40:38;;;;;;;3.88;0.70;;;1.70;99.90;;;;;;4898971;29;20048;-78
2021/12/02 08:43:08;;;;;;;1.42;0.73;;;1.70;99.90;;;;;;4899175;29;20051;-76
2021/12/02 08:45:35;;;;;;;6.10;0.70;;;1.80;99.90;;;;;;4916922;29;20051;-78
2021/12/02 08:48:04;;;;;;;4.55;0.50;;;1.80;99.90;;;;;;4917829;29;20138;-77
2021/12/02 08:50:30;;;;;;;3.75;1.10;;;1.90;99.90;;;;;;4934619;29;20506;-75
2021/12/02 08:52:57;;;;;;;4.07;1.00;;;2.00;99.90;;;;;;4917385;29;20055;-78
2021/12/02 08:55:24;;;;;;;2.60;1.20;;;2.10;99.90;;;;;;4934031;29;20047;-79
2021/12/02 08:57:51;;;;;;;6.63;1.50;;;2.20;99.90;;;;;;4933788;29;20047;-77
2021/12/02 09:00:20;;;;;;;5.78;1.48;;;2.30;99.90;;;;;;4934164;29;20047;-78
2021/12/02 09:02:46;;;;;;;5.63;1.60;;;2.40;99.90;;;;;;4931452;29;20047;-79
2021/12/02 09:05:12;;;;;;;5.43;1.50;;;2.40;99.90;;;;;;4901762;29;20143;-78
2021/12/02 09:07:38;;;;;;;4.32;1.65;;;2.50;99.90;;;;;;4917547;29;20389;-79
2021/12/02 09:10:06;;;;;;;5.75;1.83;;;2.50;99.90;;;;;;4934570;29;20050;-77
2021/12/02 09:12:32;;;;;;;5.75;1.95;;;2.50;99.90;;;;;;4934445;29;20047;-78
2021/12/02 09:14:58;;;;;;;5.43;1.60;;;2.50;99.90;;;;;;4933950;29;21040;-77
2021/12/02 09:17:32;;;;;;;5.55;1.33;;;2.60;99.90;;;;;;4917919;29;20087;-76
2021/12/02 09:19:58;;;;;;;;;;;2.60;99.90;;;;;;4934539;29;20046;-77
2021/12/02 09:22:24;;;;;;;3.33;1.30;;;2.60;99.90;;;;;;4934666;29;20372;-78
2021/12/02 09:24:50;;;;;;;4.53;1.33;;;2.60;99.90;;;;;;4934423;29;20571;-79
2021/12/02 09:27:15;;;;;;;3.90;1.27;;;2.70;99.90;;;;;;4934379;29;20128;-79
2021/12/02 09:29:41;;;;;;;4.03;1.55;;;2.70;99.90;;;;;;4916488;29;20047;-78
2021/12/02 09:32:08;;;;;;;5.15;1.27;;;2.80;99.90;;;;;;4934841;29;20110;-77
2021/12/02 09:34:34;;;;;;;3.40;1.40;;;2.80;99.90;;;;;;4933189;29;20491;-79
2021/12/02 09:36:59;;;;;;;9.70;2.67;;;2.80;99.90;;;;;;4917641;29;20139;-78
2021/12/02 09:39:30;;;;;;;5.72;1.90;;;2.80;99.90;;;;;;4934526;29;20051;-78
2021/12/02 09:41:56;;;;;;;5.88;1.90;;;2.90;99.90;;;;;;4933954;29;20052;-78
2021/12/02 09:44:22;;;;;;;4.60;1.85;;;2.90;99.90;;;;;;4934311;29;20471;-78
2021/12/02 09:46:48;;;;;;;4.40;1.75;;;3.00;99.90;;;;;;4917363;29;20048;-78
2021/12/02 09:49:15;;;;;;;4.65;1.50;;;3.00;99.90;;;;;;4934603;29;20506;-78
2021/12/02 09:54:26;;;;;;;3.83;1.73;;;3.00;99.90;;;;;;4917247;29;20063;-78
2021/12/02 09:56:54;;;;;;;5.45;1.60;;;3.00;99.90;;;;;;4933789;29;20055;-79
2021/12/02 09:59:28;;;;;;;3.47;1.63;;;3.10;99.90;;;;;;4934433;29;20055;-76
2021/12/02 10:02:00;;;;;;;6.07;1.77;;;3.20;99.90;;;;;;4917295;29;20052;-76
2021/12/02 10:04:27;;;;;;;4.63;2.28;;;3.50;99.90;;;;;;4916948;29;20047;-76
2021/12/02 10:07:16;;;;;;;3.28;1.73;;;3.60;99.90;;;;;;4934283;29;20059;-77
2021/12/02 10:09:56;;;;;;;4.43;1.67;;;3.70;99.90;;;;;;4937264;29;20052;-77
2021/12/02 10:12:23;;;;;;;4.10;0.90;;;3.70;99.90;;;;;;4937650;29;20043;-76
2021/12/02 10:14:56;;;;;;;3.15;0.82;;;3.60;99.90;;;;;;4937699;29;20081;-76
2021/12/02 10:23:26;;;;;;;3.08;0.40;;;3.60;99.90;;;;;;4841805;29;20065;-76
2021/12/02 10:25:58;;;;;;;2.25;0.60;;;3.60;99.90;;;;;;4841697;29;20662;-77
2021/12/02 10:28:27;;;;;;;3.28;0.38;;;3.60;99.90;;;;;;4841297;29;20049;-76
2021/12/02 10:30:57;;;;;;;2.03;0.45;;;3.60;99.90;;;;;;4826290;29;20158;-75
2021/12/02 10:33:38;;;;;;;4.63;0.38;;;3.70;99.90;;;;;;4826436;29;20530;-76
2021/12/02 10:36:20;;;;;;;1.90;0.30;;;3.70;99.90;;;;;;4841597;29;20082;-76
2021/12/02 10:38:46;;;;;;;2.40;0.15;;;3.60;99.90;;;;;;4841263;29;20050;-76
2021/12/02 10:41:22;;;;;;;1.17;0.30;;;4.00;99.90;;;;;;4841376;29;20077;-77
2021/12/02 10:44:12;;;;;;;1.90;0.15;;;3.40;99.90;;;;;;4841107;29;20092;-77
2021/12/02 10:46:50;;;;;;;1.15;0.30;;;3.40;99.90;;;;;;4841341;29;20050;-76
2021/12/02 10:49:16;;;;;;;2.65;0.20;;;3.30;99.90;;;;;;4841352;29;20054;-76
2021/12/02 10:51:50;;;;;;;2.00;0.20;;;3.20;99.90;;;;;;4841062;29;20050;-76
2021/12/02 10:54:22;;;;;;;0.65;0.20;;;3.20;99.90;;;;;;4841258;29;20170;-77
2021/12/02 10:56:54;;;;;;;0.95;0.35;;;3.10;99.90;;;;;;4857708;29;20500;-77
2021/12/02 10:59:27;;;;;;;0.68;0.20;;;3.10;99.90;;;;;;4936681;29;20043;-77
2021/12/02 11:01:55;;;;;;;0.63;0.30;;;3.10;99.90;;;;;;4936839;29;20055;-76
2021/12/02 11:04:21;;;;;;;1.60;0.40;;;3.10;99.90;;;;;;4936551;29;20103;-75
2021/12/02 11:06:50;;;;;;;1.10;0.50;;;3.00;99.90;;;;;;4936753;29;20081;-76
2021/12/02 11:09:30;;;;;;;1.83;0.80;;;2.90;99.90;;;;;;4936792;29;20055;-76
2021/12/02 11:12:13;;;;;;;3.00;1.00;;;3.00;99.90;;;;;;4936766;29;20415;-76
2021/12/02 11:14:58;;;;;;;3.75;1.40;;;3.00;99.90;;;;;;4936374;29;20106;-75
2021/12/02 11:17:33;;;;;;;1.40;0.50;;;3.00;99.90;;;;;;4919653;29;20048;-76
2021/12/02 11:20:02;;;;;;;0.98;0.40;;;2.90;99.90;;;;;;4925859;29;20051;-76
2021/12/02 11:22:29;;;;;;;0.68;0.40;;;2.90;99.90;;;;;;4919142;29;20095;-77
2021/12/02 11:24:55;;;;;;;2.50;0.50;;;2.80;99.90;;;;;;4919355;29;20051;-77
2021/12/02 11:27:25;;;;;;;1.48;0.35;;;3.50;99.90;;;;;;4935996;29;20487;-77
2021/12/02 11:29:57;;;;;;;2.70;0.50;;;2.70;99.90;;;;;;4935730;29;20566;-78
2021/12/02 11:32:28;;;;;;;1.63;0.40;;;2.60;99.90;;;;;;4935679;29;20050;-76
2021/12/02 11:35:02;;;;;;;0.98;0.28;;;2.60;99.90;;;;;;4935792;29;20099;-77
2021/12/02 11:37:28;;;;;;;2.97;0.40;;;2.40;99.90;;;;;;4936172;29;20047;-79
2021/12/02 11:39:55;;;;;;;1.25;0.30;;;2.40;99.90;;;;;;4918959;29;20058;-77
2021/12/02 11:42:21;;;;;;;2.05;0.20;;;2.30;99.90;;;;;;4936340;29;20048;-78
2021/12/02 11:44:48;;;;;;;0.77;0.30;;;2.50;99.90;;;;;;4935992;29;20043;-78
2021/12/02 11:47:13;;;;;;;0.85;0.30;;;2.10;99.90;;;;;;4918888;29;20055;-78
2021/12/02 11:49:41;;;;;;;0.43;0.32;;;2.10;99.90;;;;;;4935956;29;20039;-77
2021/12/02 11:52:08;;;;;;;1.60;0.47;;;2.00;99.90;;;;;;4919060;29;20052;-77
2021/12/02 11:54:34;;;;;;;1.40;0.20;;;2.00;99.90;;;;;;4919002;29;20055;-77
2021/12/02 11:56:59;;;;;;;0.38;0.20;;;2.00;99.90;;;;;;4935780;29;20051;-77
2021/12/02 11:59:26;;;;;;;2.20;0.60;;;2.00;99.90;;;;;;4935852;29;20058;-77
2021/12/02 12:01:56;;;;;;;2.58;0.32;;;2.00;99.90;;;;;;4916383;29;20553;-77
2021/12/02 12:04:22;;;;;;;2.90;0.25;;;1.90;99.90;;;;;;4933906;29;20059;-78
2021/12/02 12:07:12;;;;;;;1.60;0.40;;;1.90;99.90;;;;;;4935815;29;20407;-78
2021/12/02 12:09:38;;;;;;;1.90;0.50;;;2.00;99.90;;;;;;4935935;29;20403;-78
2021/12/02 12:12:05;;;;;;;1.60;0.88;;;2.10;99.90;;;;;;4935620;29;20052;-78
2021/12/02 12:14:42;;;;;;;3.22;0.65;;;2.30;99.90;;;;;;4935772;29;20158;-78
2021/12/02 12:17:17;;;;;;;1.00;0.50;;;2.50;99.90;;;;;;4918069;29;20052;-78
2021/12/02 12:19:45;;;;;;;4.43;0.70;;;2.60;99.90;;;;;;4935491;29;20110;-78
2021/12/02 12:22:35;;;;;;;2.05;0.50;;;2.80;99.90;;;;;;4902205;29;20059;-79
2021/12/02 12:25:06;;;;;;;1.80;0.45;;;3.00;99.90;;;;;;4918553;29;20122;-79
2021/12/02 12:27:37;;;;;;;0.88;0.40;;;3.20;99.90;;;;;;4934893;29;20110;-78
2021/12/02 12:30:08;;;;;;;1.63;0.50;;;3.40;99.90;;;;;;4915124;29;20187;-77
2021/12/02 12:38:27;;;;;;;2.60;0.40;;;3.60;99.90;;;;;;4823534;29;20106;-76
2021/12/02 12:40:56;;;;;;;1.45;0.60;;;3.50;99.90;;;;;;4824319;29;20387;-77
2021/12/02 12:43:26;;;;;;;2.35;0.60;;;3.50;99.90;;;;;;4829031;29;20053;-79
2021/12/02 12:46:05;;;;;;;6.07;0.50;;;3.40;99.90;;;;;;4841555;29;20057;-78
2021/12/02 12:48:31;;;;;;;2.97;0.40;;;3.40;99.90;;;;;;4857370;29;20060;-77
2021/12/02 12:51:14;;;;;;;3.75;0.40;;;3.40;99.90;;;;;;4842116;29;20840;-78
2021/12/02 12:53:43;;;;;;;2.15;0.30;;;3.70;99.90;;;;;;4857086;29;20462;-76
2021/12/02 12:56:14;;;;;;;0.90;0.40;;;4.10;99.90;;;;;;4842078;29;20088;-77
2021/12/02 12:59:02;;;;;;;2.88;0.60;;;4.10;99.90;;;;;;4826771;29;20073;-76
2021/12/02 13:01:29;;;;;;;0.68;0.32;;;4.30;99.90;;;;;;4836096;29;20106;-78
2021/12/02 13:04:13;;;;;;;0.63;0.40;;;4.40;99.90;;;;;;4848613;29;20490;-76
2021/12/02 13:06:59;;;;;;;1.60;0.50;;;4.60;99.90;;;;;;4848752;29;20056;-77
2021/12/02 13:10:02;;;;;;;1.92;0.50;;;4.80;99.90;;;;;;4875384;29;20052;-77
2021/12/02 13:12:54;;;;;;;1.58;0.70;;;5.00;99.90;;;;;;4823510;29;20141;-78
2021/12/02 13:15:25;;;;;;;0.82;0.50;;;5.10;99.90;;;;;;4899674;29;20063;-78
2021/12/02 13:17:57;;;;;;;1.13;0.60;;;5.20;99.90;;;;;;4917277;29;20047;-77
2021/12/02 13:20:26;;;;;;;0.98;0.47;;;5.40;99.90;;;;;;4934731;29;20098;-77
2021/12/02 13:23:28;;;;;;;1.45;0.50;;;5.40;99.90;;;;;;4933930;29;20056;-77
2021/12/02 13:26:07;;;;;;;1.20;0.40;;;5.80;99.90;;;;;;4892934;29;20048;-76
2021/12/02 13:28:41;;;;;;;1.13;0.50;;;5.70;99.90;;;;;;4860069;29;20152;-77
2021/12/02 13:31:09;;;;;;;0.70;0.38;;;5.90;99.90;;;;;;4881619;29;20097;-76